Time;durP1;ratioP1;P1;durP2;ratioP2;P2;SDS_P1;SDS_P2;PMS_P1;PMS_P2;Temp;Humidity;BMP_temperature;BMP_pressure;BME280_temperature;BME280_humidity;BME280_pressure;Samples;Min_cycle;Max_cycle;Signal;HPM_P1;HPM_P2
2021/08/02 00:00:25;;;;;;;5.45;4.00;;;;;;;;;;3607836;39;20047;-53
2021/08/02 00:03:08;;;;;;;7.22;4.65;;;;;;;;;;3607657;39;20044;-58
2021/08/02 00:05:40;;;;;;;8.27;3.40;;;;;;;;;;3607942;39;20059;-52
2021/08/02 00:08:09;;;;;;;6.65;3.15;;;;;;;;;;3598007;39;20068;-50
2021/08/02 00:10:36;;;;;;;4.70;3.72;;;;;;;;;;3607447;39;20051;-59
2021/08/02 00:13:09;;;;;;;5.25;2.92;;;;;;;;;;3607531;39;20055;-53
2021/08/02 00:15:37;;;;;;;5.60;4.30;;;;;;;;;;3607520;39;20103;-55
2021/08/02 00:18:06;;;;;;;5.53;3.25;;;;;;;;;;3608059;39;20048;-54
2021/08/02 00:20:34;;;;;;;4.80;3.75;;;;;;;;;;3607774;39;20044;-60
2021/08/02 00:23:05;;;;;;;5.60;3.53;;;;;;;;;;3607525;39;20051;-57
2021/08/02 00:25:34;;;;;;;4.93;3.63;;;;;;;;;;3607702;39;20306;-56
2021/08/02 00:28:03;;;;;;;8.75;3.97;;;;;;;;;;3607436;39;20051;-54
2021/08/02 00:30:32;;;;;;;6.38;3.15;;;;;;;;;;3607521;39;20052;-60
2021/08/02 00:33:01;;;;;;;4.65;2.85;;;;;;;;;;3607625;39;20402;-54
2021/08/02 00:35:33;;;;;;;4.90;2.88;;;;;;;;;;3598149;39;20052;-53
2021/08/02 00:38:07;;;;;;;5.50;3.75;;;;;;;;;;3607143;39;20060;-52
2021/08/02 00:41:12;;;;;;;5.63;3.28;;;;;;;;;;3607842;39;20083;-60
2021/08/02 00:43:42;;;;;;;4.38;2.90;;;;;;;;;;3607163;39;20055;-56
2021/08/02 00:46:13;;;;;;;4.78;2.88;;;;;;;;;;3607568;39;20054;-56
2021/08/02 00:48:57;;;;;;;3.15;2.50;;;;;;;;;;3598115;39;20403;-59
2021/08/02 00:51:27;;;;;;;5.22;3.20;;;;;;;;;;3598193;39;20047;-60
2021/08/02 00:53:59;;;;;;;3.55;2.72;;;;;;;;;;3607378;39;20425;-53
2021/08/02 00:56:31;;;;;;;6.17;2.73;;;;;;;;;;3607408;39;20131;-51
2021/08/02 00:59:03;;;;;;;7.43;2.97;;;;;;;;;;3597648;39;20286;-60
2021/08/02 01:01:37;;;;;;;7.15;2.95;;;;;;;;;;3598057;39;20448;-60
2021/08/02 01:04:08;;;;;;;6.75;3.08;;;;;;;;;;3607295;39;20055;-57
2021/08/02 01:06:38;;;;;;;6.80;3.20;;;;;;;;;;3607346;39;20052;-51
2021/08/02 01:09:07;;;;;;;11.80;3.58;;;;;;;;;;3607705;39;20084;-60
2021/08/02 01:11:35;;;;;;;6.00;3.40;;;;;;;;;;3607304;39;20136;-53
2021/08/02 01:14:06;;;;;;;8.43;3.20;;;;;;;;;;3607436;39;20047;-49
2021/08/02 01:16:37;;;;;;;10.63;3.53;;;;;;;;;;3607358;39;20055;-57
2021/08/02 01:19:08;;;;;;;5.43;3.22;;;;;;;;;;3607571;39;20059;-55
2021/08/02 01:21:39;;;;;;;;;;;;;;;;;;3607370;39;20047;-53
2021/08/02 01:24:12;;;;;;;4.45;3.10;;;;;;;;;;3606009;39;19938;-52
2021/08/02 01:26:43;;;;;;;6.82;3.67;;;;;;;;;;3607115;39;20147;-58
2021/08/02 01:29:59;;;;;;;4.50;3.70;;;;;;;;;;3606737;39;20365;-58
2021/08/02 01:32:30;;;;;;;5.22;3.72;;;;;;;;;;3606694;39;20401;-60
2021/08/02 01:35:04;;;;;;;8.57;3.97;;;;;;;;;;3607003;39;20063;-53
2021/08/02 01:37:33;;;;;;;5.15;2.78;;;;;;;;;;3607224;39;20316;-60
2021/08/02 01:40:03;;;;;;;7.10;2.88;;;;;;;;;;3607119;39;20159;-60
2021/08/02 01:42:38;;;;;;;6.78;3.65;;;;;;;;;;3606871;39;20144;-58
2021/08/02 01:45:13;;;;;;;5.65;4.22;;;;;;;;;;3607143;39;20404;-56
2021/08/02 01:47:57;;;;;;;4.70;3.10;;;;;;;;;;3607261;39;20051;-56
2021/08/02 01:50:47;;;;;;;3.40;2.50;;;;;;;;;;3607182;39;20044;-56
2021/08/02 01:53:37;;;;;;;7.30;3.90;;;;;;;;;;3606570;39;20400;-59
2021/08/02 01:56:13;;;;;;;4.80;2.70;;;;;;;;;;3607176;39;20113;-60
2021/08/02 01:59:17;;;;;;;6.70;3.40;;;;;;;;;;3607447;39;20248;-60
2021/08/02 02:01:53;;;;;;;6.35;3.53;;;;;;;;;;3607209;39;20043;-52
2021/08/02 02:04:27;;;;;;;3.72;2.92;;;;;;;;;;3606947;39;20048;-53
2021/08/02 02:06:59;;;;;;;5.85;3.33;;;;;;;;;;3607347;39;20302;-60
2021/08/02 02:09:39;;;;;;;6.30;3.25;;;;;;;;;;3597447;39;20043;-59
2021/08/02 02:12:14;;;;;;;3.80;3.00;;;;;;;;;;3606662;39;20401;-54
2021/08/02 02:14:43;;;;;;;6.88;3.90;;;;;;;;;;3607230;39;20062;-59
2021/08/02 02:17:20;;;;;;;6.93;3.65;;;;;;;;;;3607001;39;20048;-58
2021/08/02 02:19:51;;;;;;;4.10;2.67;;;;;;;;;;3597437;39;20055;-54
2021/08/02 02:22:24;;;;;;;4.00;2.85;;;;;;;;;;3606750;39;20051;-60
2021/08/02 02:24:54;;;;;;;4.82;3.20;;;;;;;;;;3606991;39;20047;-58
2021/08/02 02:27:26;;;;;;;6.15;3.60;;;;;;;;;;3597467;39;20077;-56
2021/08/02 02:30:06;;;;;;;4.38;3.25;;;;;;;;;;3606931;39;20040;-59
2021/08/02 02:32:36;;;;;;;6.70;3.17;;;;;;;;;;3606591;39;20066;-60
2021/08/02 02:35:08;;;;;;;6.22;3.67;;;;;;;;;;3608712;39;20055;-56
2021/08/02 02:37:39;;;;;;;4.72;3.20;;;;;;;;;;3597166;40;20283;-58
2021/08/02 02:40:07;;;;;;;3.88;3.00;;;;;;;;;;3598290;39;20052;-56
2021/08/02 02:42:35;;;;;;;4.65;3.33;;;;;;;;;;3597925;39;20421;-55
2021/08/02 02:45:09;;;;;;;4.70;3.45;;;;;;;;;;3597946;39;20095;-60
2021/08/02 02:47:38;;;;;;;5.55;3.38;;;;;;;;;;3597110;40;20060;-56
2021/08/02 02:50:07;;;;;;;6.03;3.40;;;;;;;;;;3597947;39;20137;-60
2021/08/02 02:52:35;;;;;;;4.40;3.00;;;;;;;;;;3596828;40;20409;-55
2021/08/02 02:55:05;;;;;;;5.43;3.15;;;;;;;;;;3598417;39;20056;-59
2021/08/02 02:57:37;;;;;;;5.90;3.85;;;;;;;;;;3596443;40;20063;-51
2021/08/02 03:00:08;;;;;;;4.75;3.13;;;;;;;;;;3597729;40;20360;-53
2021/08/02 03:02:37;;;;;;;375.20;188.02;;;;;;;;;;3596592;40;20133;-56
2021/08/02 03:05:09;;;;;;;31.00;16.65;;;;;;;;;;3597086;40;20060;-56
2021/08/02 03:07:39;;;;;;;58.05;40.03;;;;;;;;;;3597733;39;20067;-57
2021/08/02 03:10:11;;;;;;;7.63;3.72;;;;;;;;;;3597932;39;20117;-52
2021/08/02 03:12:40;;;;;;;6.30;3.22;;;;;;;;;;3597218;40;20060;-53
2021/08/02 03:15:12;;;;;;;4.85;3.45;;;;;;;;;;3597949;39;20052;-52
2021/08/02 03:17:39;;;;;;;4.00;2.78;;;;;;;;;;3598297;39;20052;-56
2021/08/02 03:20:07;;;;;;;4.43;3.38;;;;;;;;;;3597849;39;20056;-56
2021/08/02 03:22:56;;;;;;;5.57;3.03;;;;;;;;;;3597635;39;20591;-52
2021/08/02 03:25:32;;;;;;;10.48;3.42;;;;;;;;;;3597573;40;20071;-59
2021/08/02 03:28:08;;;;;;;4.65;3.05;;;;;;;;;;3597665;40;20071;-52
2021/08/02 03:30:38;;;;;;;5.28;3.60;;;;;;;;;;3597771;40;20137;-57
2021/08/02 03:33:12;;;;;;;5.22;3.25;;;;;;;;;;3597974;39;20044;-57
2021/08/02 03:35:44;;;;;;;77.10;40.47;;;;;;;;;;3597478;39;20538;-56
2021/08/02 03:38:14;;;;;;;16.85;10.50;;;;;;;;;;3604101;39;20043;-59
2021/08/02 03:40:46;;;;;;;6.25;4.07;;;;;;;;;;3607784;39;20058;-60
2021/08/02 03:43:16;;;;;;;7.57;3.25;;;;;;;;;;3607177;39;20047;-56
2021/08/02 03:45:44;;;;;;;6.63;3.47;;;;;;;;;;3606939;39;20059;-48
2021/08/02 03:48:11;;;;;;;5.53;3.17;;;;;;;;;;3607928;39;20087;-56
2021/08/02 03:50:39;;;;;;;4.90;3.55;;;;;;;;;;3607778;39;20059;-56
2021/08/02 03:53:07;;;;;;;4.57;2.80;;;;;;;;;;3607609;39;20140;-55
2021/08/02 03:55:35;;;;;;;4.53;3.47;;;;;;;;;;3607681;39;20444;-51
2021/08/02 03:58:05;;;;;;;5.20;3.63;;;;;;;;;;3607837;39;20051;-50
2021/08/02 04:00:32;;;;;;;6.78;3.33;;;;;;;;;;3607198;39;20114;-60
2021/08/02 04:03:00;;;;;;;4.32;3.10;;;;;;;;;;3607503;39;20079;-50
2021/08/02 04:05:28;;;;;;;5.35;3.47;;;;;;;;;;3607362;39;20143;-54
2021/08/02 04:07:58;;;;;;;4.82;3.28;;;;;;;;;;3607580;39;20329;-55
2021/08/02 04:10:27;;;;;;;21.02;16.98;;;;;;;;;;3607991;39;20052;-52
2021/08/02 04:12:55;;;;;;;5.25;3.78;;;;;;;;;;3607480;39;20067;-54
2021/08/02 04:15:22;;;;;;;13.70;7.75;;;;;;;;;;3607663;39;20052;-61
2021/08/02 04:17:49;;;;;;;6.95;4.30;;;;;;;;;;3598412;39;20055;-52
2021/08/02 04:20:18;;;;;;;4.72;3.08;;;;;;;;;;3606844;39;20093;-55
2021/08/02 04:22:48;;;;;;;5.15;3.03;;;;;;;;;;3607710;39;20055;-53
2021/08/02 04:25:15;;;;;;;4.80;3.42;;;;;;;;;;3596990;39;20055;-48
2021/08/02 04:27:42;;;;;;;5.65;2.67;;;;;;;;;;3608008;39;20051;-60
2021/08/02 04:30:10;;;;;;;5.45;3.45;;;;;;;;;;3607783;39;20056;-55
2021/08/02 04:32:45;;;;;;;4.65;2.85;;;;;;;;;;3607264;39;20096;-52
2021/08/02 04:35:12;;;;;;;4.45;2.70;;;;;;;;;;3607652;39;20059;-60
2021/08/02 04:37:40;;;;;;;5.18;2.75;;;;;;;;;;3607040;39;20444;-51
2021/08/02 04:40:08;;;;;;;5.03;2.70;;;;;;;;;;3607378;39;20059;-59
2021/08/02 04:42:38;;;;;;;2.95;2.20;;;;;;;;;;3607515;39;20055;-53
2021/08/02 04:45:07;;;;;;;5.07;2.80;;;;;;;;;;3606949;39;20055;-54
2021/08/02 04:47:34;;;;;;;4.55;2.20;;;;;;;;;;3607276;39;20077;-60
2021/08/02 04:50:02;;;;;;;5.25;2.42;;;;;;;;;;3607048;39;20048;-52
2021/08/02 04:52:30;;;;;;;5.75;2.40;;;;;;;;;;3607693;39;20054;-56
2021/08/02 04:54:57;;;;;;;4.72;2.33;;;;;;;;;;3598290;39;20044;-61
2021/08/02 04:57:25;;;;;;;5.43;2.15;;;;;;;;;;3607452;39;20051;-57
2021/08/02 04:59:52;;;;;;;4.82;2.35;;;;;;;;;;3607011;39;20043;-52
2021/08/02 05:02:19;;;;;;;5.05;2.03;;;;;;;;;;3607839;39;20051;-60
2021/08/02 05:04:47;;;;;;;3.40;2.20;;;;;;;;;;3607423;39;20059;-56
2021/08/02 05:07:14;;;;;;;4.15;2.30;;;;;;;;;;3597686;39;20264;-49
2021/08/02 05:09:41;;;;;;;5.32;2.10;;;;;;;;;;3607298;39;20103;-61
2021/08/02 05:12:10;;;;;;;5.10;2.40;;;;;;;;;;3607394;39;20051;-59
2021/08/02 05:14:38;;;;;;;3.15;1.92;;;;;;;;;;3607487;39;20514;-50
2021/08/02 05:17:07;;;;;;;3.45;2.30;;;;;;;;;;3607488;39;20060;-54
2021/08/02 05:19:34;;;;;;;4.18;1.92;;;;;;;;;;3607307;39;20055;-58
2021/08/02 05:22:02;;;;;;;4.65;2.40;;;;;;;;;;3607521;39;20119;-59
2021/08/02 05:24:31;;;;;;;3.67;2.33;;;;;;;;;;3607222;39;20048;-57
2021/08/02 05:26:59;;;;;;;2.92;1.90;;;;;;;;;;3607339;39;20055;-58
2021/08/02 05:29:27;;;;;;;4.25;2.10;;;;;;;;;;3597491;39;20091;-56
2021/08/02 05:31:54;;;;;;;3.83;2.13;;;;;;;;;;3606967;39;20047;-51
2021/08/02 05:34:23;;;;;;;3.13;1.80;;;;;;;;;;3606701;39;20062;-51
2021/08/02 05:36:50;;;;;;;4.07;1.92;;;;;;;;;;3607264;39;20136;-53
2021/08/02 05:39:17;;;;;;;4.15;1.83;;;;;;;;;;3597549;39;20143;-53
2021/08/02 05:41:45;;;;;;;3.65;1.95;;;;;;;;;;3607201;39;20052;-56
2021/08/02 05:44:13;;;;;;;3.35;1.83;;;;;;;;;;3607062;39;20103;-55
2021/08/02 05:46:40;;;;;;;3.38;2.05;;;;;;;;;;3607478;39;20040;-56
2021/08/02 05:49:07;;;;;;;5.30;1.85;;;;;;;;;;3607369;39;20050;-53
2021/08/02 05:51:35;;;;;;;3.83;2.53;;;;;;;;;;3606813;39;20051;-53
2021/08/02 05:54:02;;;;;;;7.05;2.00;;;;;;;;;;3607108;39;20352;-52
2021/08/02 05:56:29;;;;;;;6.20;1.70;;;;;;;;;;3607443;39;20062;-53
2021/08/02 05:58:57;;;;;;;3.50;1.88;;;;;;;;;;3606919;39;20069;-54
2021/08/02 06:01:24;;;;;;;3.95;2.10;;;;;;;;;;3607231;39;20062;-57
2021/08/02 06:03:52;;;;;;;4.78;2.17;;;;;;;;;;3606482;39;20056;-54
2021/08/02 06:06:19;;;;;;;3.15;2.03;;;;;;;;;;3607181;39;20052;-59
2021/08/02 06:08:46;;;;;;;26.35;14.88;;;;;;;;;;3606504;39;20055;-62
2021/08/02 06:11:14;;;;;;;11.02;6.78;;;;;;;;;;3607163;39;20052;-56
2021/08/02 06:13:41;;;;;;;5.05;2.55;;;;;;;;;;3606765;39;20425;-48
2021/08/02 06:16:09;;;;;;;2.88;1.80;;;;;;;;;;3606976;39;20051;-62
2021/08/02 06:18:36;;;;;;;2.88;2.22;;;;;;;;;;3606913;39;20047;-58
2021/08/02 06:21:03;;;;;;;2.70;1.92;;;;;;;;;;3606918;39;20055;-53
2021/08/02 06:23:45;;;;;;;3.65;2.00;;;;;;;;;;3607176;39;20051;-51
2021/08/02 06:26:16;;;;;;;3.90;2.10;;;;;;;;;;3606921;39;20048;-51
2021/08/02 06:28:44;;;;;;;3.10;1.77;;;;;;;;;;3606989;39;20052;-48
2021/08/02 06:31:11;;;;;;;2.95;1.73;;;;;;;;;;3607104;39;20059;-56
2021/08/02 06:33:39;;;;;;;3.75;1.77;;;;;;;;;;3606484;39;20091;-60
2021/08/02 06:36:06;;;;;;;3.45;2.30;;;;;;;;;;3606915;39;20067;-60
2021/08/02 06:38:34;;;;;;;2.72;1.80;;;;;;;;;;3606412;39;20305;-56
2021/08/02 06:41:02;;;;;;;4.57;2.38;;;;;;;;;;3606801;39;20455;-57
2021/08/02 06:43:30;;;;;;;3.60;2.20;;;;;;;;;;3607021;39;20133;-53
2021/08/02 06:45:57;;;;;;;3.70;2.17;;;;;;;;;;3606732;39;20056;-53
2021/08/02 06:48:27;;;;;;;3.30;1.52;;;;;;;;;;3607099;39;20463;-60
2021/08/02 06:50:54;;;;;;;5.07;2.38;;;;;;;;;;3606947;39;20063;-54
2021/08/02 06:53:22;;;;;;;3.58;2.13;;;;;;;;;;3597364;39;20059;-54
2021/08/02 06:55:49;;;;;;;6.30;3.35;;;;;;;;;;3606582;39;20481;-56
2021/08/02 06:58:17;;;;;;;4.65;3.13;;;;;;;;;;3606468;39;20443;-57
2021/08/02 07:00:44;;;;;;;3.50;2.08;;;;;;;;;;3606608;39;20056;-51
2021/08/02 07:03:12;;;;;;;4.47;2.28;;;;;;;;;;3606445;39;20073;-52
2021/08/02 07:05:41;;;;;;;2.40;1.70;;;;;;;;;;3596633;39;20070;-54
2021/08/02 07:08:08;;;;;;;4.47;2.15;;;;;;;;;;3606577;39;20054;-59
2021/08/02 07:10:35;;;;;;;3.65;2.33;;;;;;;;;;3606752;39;20062;-64
2021/08/02 07:13:07;;;;;;;80.18;44.58;;;;;;;;;;3606563;39;20605;-58
2021/08/02 07:15:34;;;;;;;5.63;3.40;;;;;;;;;;3606464;39;20162;-61
2021/08/02 07:18:01;;;;;;;4.45;2.05;;;;;;;;;;3606251;39;20658;-57
2021/08/02 07:20:29;;;;;;;2.95;1.92;;;;;;;;;;3607453;39;20054;-62
2021/08/02 07:22:56;;;;;;;4.65;1.70;;;;;;;;;;3607714;39;20142;-57
2021/08/02 07:25:25;;;;;;;3.20;1.90;;;;;;;;;;3607866;39;20051;-54
2021/08/02 07:27:52;;;;;;;4.32;1.95;;;;;;;;;;3598482;39;20109;-55
2021/08/02 07:30:19;;;;;;;2.70;1.75;;;;;;;;;;3608112;39;20096;-57
2021/08/02 07:32:47;;;;;;;3.28;1.63;;;;;;;;;;3608100;39;20067;-54
2021/08/02 07:35:14;;;;;;;2.08;1.20;;;;;;;;;;3607986;39;20413;-54
2021/08/02 07:37:42;;;;;;;4.22;2.00;;;;;;;;;;3596428;40;20052;-53
2021/08/02 07:40:10;;;;;;;3.80;1.65;;;;;;;;;;3596332;40;20055;-63
2021/08/02 07:42:38;;;;;;;3.45;1.75;;;;;;;;;;3597624;40;20064;-53
2021/08/02 07:45:07;;;;;;;2.83;1.80;;;;;;;;;;3596473;40;20060;-51
2021/08/02 07:47:34;;;;;;;2.88;1.38;;;;;;;;;;3593588;40;20091;-53
2021/08/02 07:50:02;;;;;;;2.60;1.45;;;;;;;;;;3587833;40;20052;-63
2021/08/02 07:52:31;;;;;;;2.78;1.50;;;;;;;;;;3588519;40;20084;-53
2021/08/02 07:54:59;;;;;;;2.58;1.60;;;;;;;;;;3586697;40;20068;-58
2021/08/02 07:57:30;;;;;;;3.60;1.33;;;;;;;;;;3587257;40;20472;-61
2021/08/02 08:00:02;;;;;;;3.65;1.33;;;;;;;;;;3586964;40;20060;-51
2021/08/02 08:02:35;;;;;;;3.13;1.42;;;;;;;;;;3587590;40;20045;-53
2021/08/02 08:05:05;;;;;;;1.80;1.15;;;;;;;;;;3587554;40;20060;-53
2021/08/02 08:07:50;;;;;;;5.15;1.33;;;;;;;;;;3587227;40;20511;-53
2021/08/02 08:10:22;;;;;;;2.50;1.40;;;;;;;;;;3587322;40;20059;-51
2021/08/02 08:12:51;;;;;;;3.27;1.47;;;;;;;;;;3586827;40;20063;-57
2021/08/02 08:15:21;;;;;;;4.82;1.50;;;;;;;;;;3586902;40;20053;-55
2021/08/02 08:17:49;;;;;;;3.45;1.52;;;;;;;;;;3587567;40;20044;-54
2021/08/02 08:20:20;;;;;;;2.65;1.63;;;;;;;;;;3587756;40;20059;-53
2021/08/02 08:22:49;;;;;;;3.47;1.33;;;;;;;;;;3587516;40;20056;-59
2021/08/02 08:25:16;;;;;;;17.23;11.88;;;;;;;;;;3587129;40;20048;-59
2021/08/02 08:27:44;;;;;;;79.75;40.90;;;;;;;;;;3587886;40;20073;-56
2021/08/02 08:30:13;;;;;;;4.22;2.13;;;;;;;;;;3587445;40;20056;-54
2021/08/02 08:32:41;;;;;;;3.15;1.80;;;;;;;;;;3587355;40;20048;-54
2021/08/02 08:35:11;;;;;;;2.67;1.45;;;;;;;;;;3587312;40;20052;-52
2021/08/02 08:37:39;;;;;;;2.30;1.50;;;;;;;;;;3595688;39;20091;-59
2021/08/02 08:40:09;;;;;;;2.75;1.52;;;;;;;;;;3607428;39;20059;-61
2021/08/02 08:42:40;;;;;;;3.63;1.55;;;;;;;;;;3607296;39;20055;-57
2021/08/02 08:45:10;;;;;;;4.57;1.75;;;;;;;;;;3598421;39;20413;-55
2021/08/02 08:47:38;;;;;;;3.28;1.58;;;;;;;;;;3607621;39;20067;-54
2021/08/02 08:50:07;;;;;;;1.52;1.15;;;;;;;;;;3607603;39;20083;-53
2021/08/02 08:52:38;;;;;;;3.80;1.52;;;;;;;;;;3607610;39;20043;-53
2021/08/02 08:55:11;;;;;;;3.25;1.33;;;;;;;;;;3607284;39;20047;-58
2021/08/02 08:57:40;;;;;;;4.53;1.50;;;;;;;;;;3607472;39;20084;-57
2021/08/02 09:00:38;;;;;;;4.03;1.70;;;;;;;;;;3607383;39;20059;-52
2021/08/02 09:03:24;;;;;;;6.50;4.15;;;;;;;;;;3604957;39;20116;-54
2021/08/02 09:06:03;;;;;;;2.90;1.73;;;;;;;;;;3607440;39;20416;-51
2021/08/02 09:08:43;;;;;;;2.47;1.70;;;;;;;;;;3607314;39;20066;-52
2021/08/02 09:11:19;;;;;;;3.25;1.63;;;;;;;;;;3608044;39;20064;-55
2021/08/02 09:13:47;;;;;;;2.60;1.45;;;;;;;;;;3607788;39;20336;-52
2021/08/02 09:16:20;;;;;;;1.83;1.33;;;;;;;;;;3607523;39;20105;-54
2021/08/02 09:19:03;;;;;;;2.88;1.83;;;;;;;;;;3607170;39;20052;-58
2021/08/02 09:21:41;;;;;;;2.88;1.83;;;;;;;;;;3607762;39;20101;-56
2021/08/02 09:24:09;;;;;;;2.05;1.50;;;;;;;;;;3607256;39;20062;-53
2021/08/02 09:26:39;;;;;;;2.22;1.45;;;;;;;;;;3607437;39;20421;-54
2021/08/02 09:29:09;;;;;;;2.97;1.67;;;;;;;;;;3607678;39;20047;-61
2021/08/02 09:31:39;;;;;;;3.13;1.20;;;;;;;;;;3606665;39;20448;-53
2021/08/02 09:34:08;;;;;;;3.53;1.60;;;;;;;;;;3607459;39;20083;-56
2021/08/02 09:36:41;;;;;;;55.38;34.78;;;;;;;;;;3607334;39;20113;-57
2021/08/02 09:39:11;;;;;;;7.10;4.53;;;;;;;;;;3607255;39;20051;-63
2021/08/02 09:41:39;;;;;;;1.88;1.15;;;;;;;;;;3606721;39;20062;-61
2021/08/02 09:44:16;;;;;;;2.97;1.50;;;;;;;;;;3606835;39;20202;-61
2021/08/02 09:47:01;;;;;;;2.90;1.65;;;;;;;;;;3607226;39;20060;-57
2021/08/02 09:49:43;;;;;;;2.63;1.17;;;;;;;;;;3605968;39;20053;-56
2021/08/02 09:52:10;;;;;;;3.33;1.63;;;;;;;;;;3606990;39;20047;-59
2021/08/02 09:54:38;;;;;;;2.92;1.27;;;;;;;;;;3607077;39;20094;-57
2021/08/02 09:57:06;;;;;;;1.88;1.20;;;;;;;;;;3607174;39;20047;-58
2021/08/02 09:59:42;;;;;;;2.38;1.50;;;;;;;;;;3607020;39;20051;-51
2021/08/02 10:02:10;;;;;;;2.30;1.38;;;;;;;;;;3607305;39;20055;-58
2021/08/02 10:04:42;;;;;;;5.70;1.52;;;;;;;;;;3606689;39;20047;-58
2021/08/02 10:07:13;;;;;;;2.45;1.55;;;;;;;;;;3606769;39;20067;-54
2021/08/02 10:09:40;;;;;;;3.95;1.95;;;;;;;;;;3607238;39;20055;-62
2021/08/02 10:12:08;;;;;;;3.05;1.80;;;;;;;;;;3607006;39;20109;-58
2021/08/02 10:14:35;;;;;;;2.80;1.60;;;;;;;;;;3607260;39;20071;-59
2021/08/02 10:17:10;;;;;;;5.13;1.65;;;;;;;;;;3606629;39;20150;-62
2021/08/02 10:19:40;;;;;;;5.18;1.80;;;;;;;;;;3606928;39;20044;-60
2021/08/02 10:22:08;;;;;;;3.08;1.73;;;;;;;;;;3606508;39;20059;-62
2021/08/02 10:24:48;;;;;;;2.55;1.50;;;;;;;;;;3607244;39;20078;-62
2021/08/02 10:27:30;;;;;;;3.55;2.00;;;;;;;;;;3606992;39;20156;-54
2021/08/02 10:30:22;;;;;;;3.15;1.90;;;;;;;;;;3607071;39;20136;-56
2021/08/02 10:32:57;;;;;;;3.72;2.00;;;;;;;;;;3607357;39;20159;-56
2021/08/02 10:35:32;;;;;;;3.40;1.63;;;;;;;;;;3607040;39;20063;-58
2021/08/02 10:38:05;;;;;;;3.33;2.10;;;;;;;;;;3606574;39;20124;-52
2021/08/02 10:40:43;;;;;;;4.03;1.90;;;;;;;;;;3606832;39;20496;-57
2021/08/02 10:43:11;;;;;;;3.83;1.73;;;;;;;;;;3607010;39;20128;-59
2021/08/02 10:45:41;;;;;;;5.65;2.35;;;;;;;;;;3597179;39;20409;-56
2021/08/02 10:48:09;;;;;;;2.72;1.80;;;;;;;;;;3606923;39;20128;-60
2021/08/02 10:50:42;;;;;;;3.40;1.90;;;;;;;;;;3606726;39;20062;-61
2021/08/02 10:53:12;;;;;;;2.38;1.45;;;;;;;;;;3606888;39;20059;-55
2021/08/02 10:55:44;;;;;;;4.10;1.90;;;;;;;;;;3608200;39;20333;-63
2021/08/02 10:58:12;;;;;;;2.78;1.40;;;;;;;;;;3608365;39;20066;-58
2021/08/02 11:00:39;;;;;;;2.30;1.40;;;;;;;;;;3608247;39;20044;-53
2021/08/02 11:03:08;;;;;;;4.07;1.70;;;;;;;;;;3608049;39;20063;-59
2021/08/02 11:05:36;;;;;;;2.95;1.50;;;;;;;;;;3608038;39;20055;-57
2021/08/02 11:08:05;;;;;;;2.28;1.50;;;;;;;;;;3608170;39;20043;-61
2021/08/02 11:10:34;;;;;;;2.53;1.48;;;;;;;;;;3607974;39;20079;-56
2021/08/02 11:13:25;;;;;;;3.47;1.52;;;;;;;;;;3608180;39;20054;-58
2021/08/02 11:15:53;;;;;;;4.90;1.65;;;;;;;;;;3608232;39;20428;-59
2021/08/02 11:18:25;;;;;;;4.15;1.60;;;;;;;;;;3608111;39;20140;-58
2021/08/02 11:20:54;;;;;;;4.55;1.85;;;;;;;;;;3608012;39;20056;-59
2021/08/02 11:23:51;;;;;;;2.78;1.50;;;;;;;;;;3608183;39;20412;-58
2021/08/02 11:26:20;;;;;;;1.88;1.27;;;;;;;;;;3601270;39;20054;-57
2021/08/02 11:28:54;;;;;;;6.90;1.77;;;;;;;;;;3607364;39;20047;-55
2021/08/02 11:31:24;;;;;;;4.90;1.65;;;;;;;;;;3598777;39;20052;-61
2021/08/02 11:33:52;;;;;;;4.60;2.00;;;;;;;;;;3607631;39;20055;-55
2021/08/02 11:36:21;;;;;;;8.02;2.15;;;;;;;;;;3608009;39;20055;-58
2021/08/02 11:38:50;;;;;;;8.38;2.22;;;;;;;;;;3607482;39;20039;-59
2021/08/02 11:41:28;;;;;;;9.20;2.10;;;;;;;;;;3607554;39;20055;-57
2021/08/02 11:43:58;;;;;;;6.43;2.70;;;;;;;;;;3607514;39;20202;-60
2021/08/02 11:46:26;;;;;;;5.97;2.60;;;;;;;;;;3607811;39;20047;-60
2021/08/02 11:48:54;;;;;;;7.63;2.55;;;;;;;;;;3607529;39;20087;-52
2021/08/02 11:51:22;;;;;;;4.13;2.50;;;;;;;;;;3608219;39;20039;-55
2021/08/02 11:53:49;;;;;;;5.70;2.40;;;;;;;;;;3598550;39;20061;-55
2021/08/02 11:56:30;;;;;;;6.82;2.80;;;;;;;;;;3598389;39;20062;-52
2021/08/02 11:58:58;;;;;;;5.15;2.70;;;;;;;;;;3607823;39;20074;-54
2021/08/02 12:01:25;;;;;;;3.53;2.20;;;;;;;;;;3607408;39;20424;-51
2021/08/02 12:03:56;;;;;;;4.80;2.60;;;;;;;;;;3607524;39;20047;-52
2021/08/02 12:06:25;;;;;;;4.28;2.67;;;;;;;;;;3606959;39;20144;-56
2021/08/02 12:08:54;;;;;;;4.10;2.58;;;;;;;;;;3607826;39;20048;-51
2021/08/02 12:11:22;;;;;;;4.47;3.08;;;;;;;;;;3607804;39;20070;-54
2021/08/02 12:13:50;;;;;;;4.90;3.15;;;;;;;;;;3607911;39;20116;-53
2021/08/02 12:16:33;;;;;;;5.30;2.10;;;;;;;;;;3607771;39;20187;-56
2021/08/02 12:19:09;;;;;;;5.15;2.80;;;;;;;;;;3607674;39;20055;-52
2021/08/02 12:21:38;;;;;;;3.88;2.72;;;;;;;;;;3608130;39;20137;-53
2021/08/02 12:24:13;;;;;;;4.95;2.72;;;;;;;;;;3607734;39;20119;-54
2021/08/02 12:26:55;;;;;;;4.07;2.40;;;;;;;;;;3607585;39;20439;-49
2021/08/02 12:29:30;;;;;;;8.57;4.07;;;;;;;;;;3607359;39;20055;-58
2021/08/02 12:32:00;;;;;;;30.40;20.70;;;;;;;;;;3607392;39;20075;-52
2021/08/02 12:34:28;;;;;;;5.20;3.60;;;;;;;;;;3606912;39;20058;-52
2021/08/02 12:36:58;;;;;;;3.63;2.03;;;;;;;;;;3607233;39;20098;-53
2021/08/02 12:39:35;;;;;;;5.30;2.20;;;;;;;;;;3607308;39;20084;-50
2021/08/02 12:42:05;;;;;;;4.00;2.30;;;;;;;;;;3607069;39;20055;-53
2021/08/02 12:44:32;;;;;;;6.22;2.75;;;;;;;;;;3607835;39;20047;-48
2021/08/02 12:47:00;;;;;;;3.42;2.20;;;;;;;;;;3607533;39;20152;-54
2021/08/02 12:49:32;;;;;;;4.03;1.90;;;;;;;;;;3607367;39;20051;-59
2021/08/02 12:52:00;;;;;;;3.15;2.03;;;;;;;;;;3607527;39;20051;-59
2021/08/02 12:54:27;;;;;;;4.47;2.53;;;;;;;;;;3606929;39;20417;-51
2021/08/02 12:56:55;;;;;;;5.93;2.70;;;;;;;;;;3607329;39;20047;-54
2021/08/02 12:59:22;;;;;;;4.65;2.47;;;;;;;;;;3607256;39;20074;-53
2021/08/02 13:01:49;;;;;;;3.75;2.63;;;;;;;;;;3607122;39;20140;-51
2021/08/02 13:04:18;;;;;;;4.35;2.42;;;;;;;;;;3607248;39;20068;-55
2021/08/02 13:06:46;;;;;;;3.03;2.25;;;;;;;;;;3607338;39;20448;-50
2021/08/02 13:09:13;;;;;;;3.20;2.22;;;;;;;;;;3607148;39;20050;-55
2021/08/02 13:11:41;;;;;;;3.42;2.03;;;;;;;;;;3606884;39;20088;-48
2021/08/02 13:14:09;;;;;;;3.85;2.42;;;;;;;;;;3597322;40;20055;-58
2021/08/02 13:16:36;;;;;;;3.13;2.25;;;;;;;;;;3595187;39;20075;-57
2021/08/02 13:19:04;;;;;;;5.85;2.40;;;;;;;;;;3607172;39;20074;-52
2021/08/02 13:21:31;;;;;;;3.38;2.17;;;;;;;;;;3607219;39;20703;-52
2021/08/02 13:26:58;;;;;;;3.30;1.88;;;;;;;;;;3607301;39;20059;-61
2021/08/02 13:29:30;;;;;;;1.90;1.38;;;;;;;;;;3607102;39;20056;-53
2021/08/02 13:32:00;;;;;;;3.08;1.80;;;;;;;;;;3607156;39;20051;-56
2021/08/02 13:34:34;;;;;;;2.60;1.42;;;;;;;;;;3606895;39;20061;-57
2021/08/02 13:37:03;;;;;;;2.38;1.67;;;;;;;;;;3607466;39;20044;-60
2021/08/02 13:39:32;;;;;;;2.40;1.25;;;;;;;;;;3606716;39;20695;-59
2021/08/02 13:42:02;;;;;;;2.35;1.30;;;;;;;;;;3607624;39;20044;-61
2021/08/02 13:44:32;;;;;;;3.65;1.55;;;;;;;;;;3607236;39;20128;-66
2021/08/02 13:47:01;;;;;;;1.90;1.38;;;;;;;;;;3606959;39;20141;-66
2021/08/02 13:49:29;;;;;;;2.42;1.23;;;;;;;;;;3607409;39;20051;-65
2021/08/02 13:51:56;;;;;;;3.00;1.40;;;;;;;;;;3597865;39;20071;-62
2021/08/02 13:54:24;;;;;;;2.05;1.13;;;;;;;;;;3607085;39;20059;-62
2021/08/02 13:56:52;;;;;;;28.33;20.17;;;;;;;;;;3607529;39;20056;-58
2021/08/02 13:59:32;;;;;;;3.60;1.73;;;;;;;;;;3607153;39;20136;-57
2021/08/02 14:01:59;;;;;;;3.92;1.38;;;;;;;;;;3607143;39;20077;-62
2021/08/02 14:04:27;;;;;;;3.38;1.65;;;;;;;;;;3606912;39;20058;-61
2021/08/02 14:06:55;;;;;;;5.55;1.45;;;;;;;;;;3607193;39;20044;-56
2021/08/02 14:09:22;;;;;;;2.53;1.20;;;;;;;;;;3606896;39;20066;-57
2021/08/02 14:11:54;;;;;;;4.25;1.60;;;;;;;;;;3606355;39;20051;-55
2021/08/02 14:14:22;;;;;;;3.22;1.40;;;;;;;;;;3607000;39;20100;-60
2021/08/02 14:17:01;;;;;;;3.15;1.58;;;;;;;;;;3606903;39;20063;-47
2021/08/02 14:19:33;;;;;;;6.07;1.40;;;;;;;;;;3597157;39;20313;-54
2021/08/02 14:22:03;;;;;;;3.38;1.60;;;;;;;;;;3607281;39;20051;-58
2021/08/02 14:24:31;;;;;;;2.65;1.45;;;;;;;;;;3606676;39;20090;-58
2021/08/02 14:27:00;;;;;;;5.38;1.50;;;;;;;;;;3606516;39;20058;-54
2021/08/02 14:29:28;;;;;;;4.35;1.50;;;;;;;;;;3606775;39;20051;-58
2021/08/02 14:32:00;;;;;;;4.78;1.33;;;;;;;;;;3596333;39;20044;-54
2021/08/02 14:34:27;;;;;;;3.90;1.48;;;;;;;;;;3597334;39;20526;-53
2021/08/02 14:36:55;;;;;;;3.72;1.58;;;;;;;;;;3607154;39;20051;-57
2021/08/02 14:39:25;;;;;;;3.28;1.50;;;;;;;;;;3607131;39;20058;-51
2021/08/02 14:42:01;;;;;;;3.95;2.03;;;;;;;;;;3606447;39;20152;-58
2021/08/02 14:44:40;;;;;;;4.07;1.65;;;;;;;;;;3606622;39;20057;-55
2021/08/02 14:47:10;;;;;;;4.00;1.42;;;;;;;;;;3606891;39;20074;-55
2021/08/02 14:49:47;;;;;;;2.72;1.50;;;;;;;;;;3606631;39;20147;-52
2021/08/02 14:52:16;;;;;;;3.05;1.33;;;;;;;;;;3597153;39;20321;-61
2021/08/02 14:54:47;;;;;;;4.32;1.92;;;;;;;;;;3606476;39;20054;-60
2021/08/02 14:57:16;;;;;;;2.55;1.58;;;;;;;;;;3606646;39;20048;-61
2021/08/02 14:59:44;;;;;;;2.60;1.50;;;;;;;;;;3606734;39;20136;-52
2021/08/02 15:02:14;;;;;;;2.90;1.58;;;;;;;;;;3597183;39;20062;-59
2021/08/02 15:04:44;;;;;;;13.45;7.63;;;;;;;;;;3606683;39;20146;-58
2021/08/02 15:07:13;;;;;;;8.27;2.97;;;;;;;;;;3596620;39;20313;-61